Heydar Aliyev — 9HFS7 — position and weather

sailwx.info

Track history (hours):
 
Tides and Currents Weather Stations Pressure Air Temp Water Temp Dewpoint Dewpoint Depression Visibility Wind Speed Wind Dir Waves Ship Positions

Heydar Aliyev

Last reported at 2017-Feb-21 09:29 UTC. Time now 2017-Feb-22 15:25 UTC.
Position N 36°14' E 013°35'.

Length 274 m; draft 9.3 m.

Type: Tanker. MMSI: 215213000.

Date/timePositionNaut miles runAvg speedWind from/ knotsBaromVisibWave heightAir tempDewpointWater temp
2017-Feb-21 09:29N 36°14' E 013°35'2 1.6
2017-Feb-21 08:33N 36°15' E 013°36'2 1.7
2017-Feb-21 07:33N 36°17' E 013°37'6 5.8
2017-Feb-21 06:33N 36°14' E 013°43'1111.3
2017-Feb-21 05:33N 36°07' E 013°55'1 1.1
2017-Feb-21 04:33N 36°08' E 013°54'2 1.6
2017-Feb-21 03:33N 36°08' E 013°52'2 1.5
2017-Feb-21 02:33N 36°09' E 013°50'1 1.4
2017-Feb-21 01:33N 36°10' E 013°49'1 1.3
2017-Feb-21 00:33N 36°10' E 013°48'1 1.2
2017-Feb-20 23:33N 36°11' E 013°46'1 1.4
2017-Feb-20 22:33N 36°12' E 013°45'1 1.1
2017-Feb-20 21:33N 36°13' E 013°44'1 0.7
2017-Feb-20 20:33N 36°13' E 013°43'0 0.5
2017-Feb-20 19:33N 36°13' E 013°43'0 0.3
2017-Feb-20 18:33N 36°14' E 013°42'0 0.4
2017-Feb-20 17:33N 36°14' E 013°42'0 0.3
2017-Feb-20 16:33N 36°14' E 013°42'0 0.3
2017-Feb-20 15:33N 36°14' E 013°42'0 0.2
2017-Feb-20 14:33N 36°14' E 013°42'10 0.8
2017-Feb-20 01:22N 36°19' E 013°31'1 1.1
2017-Feb-20 00:33N 36°19' E 013°32'1 1.3
2017-Feb-19 23:31N 36°18' E 013°33'1 1.4
2017-Feb-19 22:33N 36°18' E 013°35'1 1.4
2017-Feb-19 21:31N 36°17' E 013°36'2 1.7
2017-Feb-19 20:33N 36°17' E 013°38'2 1.8
2017-Feb-19 19:32N 36°16' E 013°40'1 1.1
2017-Feb-19 18:33N 36°15' E 013°40'28312.8
2017-Feb-18 20:32N 38°36' E 008°31'28312.9
2017-Feb-17 22:33N 42°40' E 005°24'2512.8
2017-Feb-17 20:33N 43°03' E 005°08'1212.4
2017-Feb-17 19:33N 43°14' E 005°00'6 6.1
2017-Feb-17 18:31N 43°20' E 004°57'0 0.1
2017-Feb-17 17:31N 43°20' E 004°57'0 0.0
2017-Feb-17 16:31N 43°20' E 004°57'0 0.0
2017-Feb-17 15:31N 43°20' E 004°57'0 0.0
2017-Feb-17 14:31N 43°20' E 004°57'0 0.0
2017-Feb-17 13:31N 43°20' E 004°57'0 0.0
2017-Feb-17 12:28N 43°20' E 004°57'0 0.1
2017-Feb-17 11:31N 43°20' E 004°57'0 0.0
2017-Feb-17 10:25N 43°20' E 004°57'0 0.0
2017-Feb-17 09:31N 43°20' E 004°57'0 0.0
2017-Feb-17 08:31N 43°20' E 004°57'0 0.0
2017-Feb-17 07:31N 43°20' E 004°57'0 0.1
2017-Feb-17 06:31N 43°20' E 004°57'0 0.1
2017-Feb-17 05:04N 43°20' E 004°57'0 0.0
2017-Feb-17 04:19N 43°20' E 004°57'0 0.0
2017-Feb-17 03:07N 43°20' E 004°57'0 0.1
2017-Feb-17 02:22N 43°20' E 004°57'0 0.1
2017-Feb-17 01:31N 43°20' E 004°57'0 0.0
2017-Feb-17 00:28N 43°20' E 004°57'0 0.0
2017-Feb-16 23:28N 43°20' E 004°57'0 0.0
2017-Feb-16 22:31N 43°20' E 004°57'0 0.1
2017-Feb-16 21:28N 43°20' E 004°57'0 0.1
2017-Feb-16 20:31N 43°20' E 004°57'0 0.1
2017-Feb-16 19:25N 43°20' E 004°57'0 0.0
2017-Feb-16 18:31N 43°20' E 004°57'0 0.1
2017-Feb-16 17:28N 43°20' E 004°57'0 0.0
2017-Feb-16 16:31N 43°20' E 004°57'0 0.0
2017-Feb-16 13:31N 43°20' E 004°57'0 0.0
2017-Feb-16 12:10N 43°20' E 004°57'0 0.0
2017-Feb-16 08:10N 43°20' E 004°57'0 0.1
2017-Feb-16 07:22N 43°20' E 004°57'0 0.1
2017-Feb-16 06:31N 43°20' E 004°57'0 0.0
2017-Feb-16 05:31N 43°20' E 004°57'0 0.0
2017-Feb-16 04:31N 43°20' E 004°57'0 0.0
2017-Feb-16 03:31N 43°20' E 004°57'0 0.0
2017-Feb-16 02:28N 43°20' E 004°57'0 0.0
2017-Feb-16 01:28N 43°20' E 004°57'0 0.0
2017-Feb-16 00:22N 43°20' E 004°57'0 0.0
2017-Feb-15 23:25N 43°20' E 004°57'0 0.0
2017-Feb-15 22:31N 43°20' E 004°57'0 0.0
2017-Feb-15 21:31N 43°20' E 004°57'0 0.0
2017-Feb-15 20:31N 43°20' E 004°57'0 0.0
2017-Feb-15 19:31N 43°20' E 004°57'0 0.1
2017-Feb-15 18:19N 43°20' E 004°57'5 4.7
2017-Feb-15 17:15N 43°24' E 004°53'0 0.0
2017-Feb-15 16:18N 43°24' E 004°53'  
2017-Feb-13 02:33N 43°24' E 004°55'7 6.2
2017-Feb-13 01:28N 43°18' E 004°60'13810.6
2017-Feb-12 12:32N 41°19' E 003°27'1211.9
2017-Feb-12 11:30N 41°10' E 003°16'1212.1
2017-Feb-12 10:33N 41°01' E 003°06'1212.2
2017-Feb-12 09:33N 40°52' E 002°55'1211.9
2017-Feb-12 08:34N 40°43' E 002°45'1212.3
2017-Feb-12 07:33N 40°33' E 002°34'1312.6
2017-Feb-12 06:33N 40°24' E 002°24'1212.5
2017-Feb-12 05:33N 40°15' E 002°13'1212.2
2017-Feb-12 04:33N 40°05' E 002°02'1212.1
2017-Feb-12 03:33N 39°56' E 001°52'1212.0
2017-Feb-12 02:33N 39°47' E 001°42'1212.0
2017-Feb-12 01:33N 39°38' E 001°31'1212.2
2017-Feb-12 00:33N 39°29' E 001°21'1212.2
2017-Feb-11 23:33N 39°20' E 001°10'1312.6
2017-Feb-11 22:33N 39°10' E 000°60'1212.4
2017-Feb-11 21:33N 39°01' E 000°49'9812.2
2017-Feb-11 13:32N 37°41' W 000°24'1211.8
2017-Feb-11 12:33N 37°32' W 000°32'1211.8
2017-Feb-11 11:33N 37°24' W 000°44'1311.7
2017-Feb-11 10:28N 37°15' W 000°55'  
Track history (hours):
 
Tides and Currents Weather Stations Pressure Air Temp Water Temp Dewpoint Dewpoint Depression Visibility Wind Speed Wind Dir Waves Ship Positions

Heydar Aliyev

Last reported at 2017-Feb-21 09:29 UTC. Time now 2017-Feb-22 15:25 UTC.
Position N 36°14' E 013°35'.

Length 274 m; draft 9.3 m.

Type: Tanker. MMSI: 215213000.

Date/timePositionNaut miles runAvg speedWind from/ knotsBaromVisibWave heightAir tempDewpointWater temp
2017-Feb-21 09:29N 36°14' E 013°35'2 1.6
2017-Feb-21 08:33N 36°15' E 013°36'2 1.7
2017-Feb-21 07:33N 36°17' E 013°37'6 5.8
2017-Feb-21 06:33N 36°14' E 013°43'1111.3
2017-Feb-21 05:33N 36°07' E 013°55'1 1.1
2017-Feb-21 04:33N 36°08' E 013°54'2 1.6
2017-Feb-21 03:33N 36°08' E 013°52'2 1.5
2017-Feb-21 02:33N 36°09' E 013°50'1 1.4
2017-Feb-21 01:33N 36°10' E 013°49'1 1.3
2017-Feb-21 00:33N 36°10' E 013°48'1 1.2
2017-Feb-20 23:33N 36°11' E 013°46'1 1.4
2017-Feb-20 22:33N 36°12' E 013°45'1 1.1
2017-Feb-20 21:33N 36°13' E 013°44'1 0.7
2017-Feb-20 20:33N 36°13' E 013°43'0 0.5
2017-Feb-20 19:33N 36°13' E 013°43'0 0.3
2017-Feb-20 18:33N 36°14' E 013°42'0 0.4
2017-Feb-20 17:33N 36°14' E 013°42'0 0.3
2017-Feb-20 16:33N 36°14' E 013°42'0 0.3
2017-Feb-20 15:33N 36°14' E 013°42'0 0.2
2017-Feb-20 14:33N 36°14' E 013°42'10 0.8
2017-Feb-20 01:22N 36°19' E 013°31'1 1.1
2017-Feb-20 00:33N 36°19' E 013°32'1 1.3
2017-Feb-19 23:31N 36°18' E 013°33'1 1.4
2017-Feb-19 22:33N 36°18' E 013°35'1 1.4
2017-Feb-19 21:31N 36°17' E 013°36'2 1.7
2017-Feb-19 20:33N 36°17' E 013°38'2 1.8
2017-Feb-19 19:32N 36°16' E 013°40'1 1.1
2017-Feb-19 18:33N 36°15' E 013°40'28312.8
2017-Feb-18 20:32N 38°36' E 008°31'28312.9
2017-Feb-17 22:33N 42°40' E 005°24'2512.8
2017-Feb-17 20:33N 43°03' E 005°08'1212.4
2017-Feb-17 19:33N 43°14' E 005°00'6 6.1
2017-Feb-17 18:31N 43°20' E 004°57'0 0.1
2017-Feb-17 17:31N 43°20' E 004°57'0 0.0
2017-Feb-17 16:31N 43°20' E 004°57'0 0.0
2017-Feb-17 15:31N 43°20' E 004°57'0 0.0
2017-Feb-17 14:31N 43°20' E 004°57'0 0.0
2017-Feb-17 13:31N 43°20' E 004°57'0 0.0
2017-Feb-17 12:28N 43°20' E 004°57'0 0.1
2017-Feb-17 11:31N 43°20' E 004°57'0 0.0
2017-Feb-17 10:25N 43°20' E 004°57'0 0.0
2017-Feb-17 09:31N 43°20' E 004°57'0 0.0
2017-Feb-17 08:31N 43°20' E 004°57'0 0.0
2017-Feb-17 07:31N 43°20' E 004°57'0 0.1
2017-Feb-17 06:31N 43°20' E 004°57'0 0.1
2017-Feb-17 05:04N 43°20' E 004°57'0 0.0
2017-Feb-17 04:19N 43°20' E 004°57'0 0.0
2017-Feb-17 03:07N 43°20' E 004°57'0 0.1
2017-Feb-17 02:22N 43°20' E 004°57'0 0.1
2017-Feb-17 01:31N 43°20' E 004°57'0 0.0
2017-Feb-17 00:28N 43°20' E 004°57'0 0.0
2017-Feb-16 23:28N 43°20' E 004°57'0 0.0
2017-Feb-16 22:31N 43°20' E 004°57'0 0.1
2017-Feb-16 21:28N 43°20' E 004°57'0 0.1
2017-Feb-16 20:31N 43°20' E 004°57'0 0.1
2017-Feb-16 19:25N 43°20' E 004°57'0 0.0
2017-Feb-16 18:31N 43°20' E 004°57'0 0.1
2017-Feb-16 17:28N 43°20' E 004°57'0 0.0
2017-Feb-16 16:31N 43°20' E 004°57'0 0.0
2017-Feb-16 13:31N 43°20' E 004°57'0 0.0
2017-Feb-16 12:10N 43°20' E 004°57'0 0.0
2017-Feb-16 08:10N 43°20' E 004°57'0 0.1
2017-Feb-16 07:22N 43°20' E 004°57'0 0.1
2017-Feb-16 06:31N 43°20' E 004°57'0 0.0
2017-Feb-16 05:31N 43°20' E 004°57'0 0.0
2017-Feb-16 04:31N 43°20' E 004°57'0 0.0
2017-Feb-16 03:31N 43°20' E 004°57'0 0.0
2017-Feb-16 02:28N 43°20' E 004°57'0 0.0
2017-Feb-16 01:28N 43°20' E 004°57'0 0.0
2017-Feb-16 00:22N 43°20' E 004°57'0 0.0
2017-Feb-15 23:25N 43°20' E 004°57'0 0.0
2017-Feb-15 22:31N 43°20' E 004°57'0 0.0
2017-Feb-15 21:31N 43°20' E 004°57'0 0.0
2017-Feb-15 20:31N 43°20' E 004°57'0 0.0
2017-Feb-15 19:31N 43°20' E 004°57'0 0.1
2017-Feb-15 18:19N 43°20' E 004°57'5 4.7
2017-Feb-15 17:15N 43°24' E 004°53'0 0.0
2017-Feb-15 16:18N 43°24' E 004°53'  
2017-Feb-13 02:33N 43°24' E 004°55'7 6.2
2017-Feb-13 01:28N 43°18' E 004°60'13810.6
2017-Feb-12 12:32N 41°19' E 003°27'1211.9
2017-Feb-12 11:30N 41°10' E 003°16'1212.1
2017-Feb-12 10:33N 41°01' E 003°06'1212.2
2017-Feb-12 09:33N 40°52' E 002°55'1211.9
2017-Feb-12 08:34N 40°43' E 002°45'1212.3
2017-Feb-12 07:33N 40°33' E 002°34'1312.6
2017-Feb-12 06:33N 40°24' E 002°24'1212.5
2017-Feb-12 05:33N 40°15' E 002°13'1212.2
2017-Feb-12 04:33N 40°05' E 002°02'1212.1
2017-Feb-12 03:33N 39°56' E 001°52'1212.0
2017-Feb-12 02:33N 39°47' E 001°42'1212.0
2017-Feb-12 01:33N 39°38' E 001°31'1212.2
2017-Feb-12 00:33N 39°29' E 001°21'1212.2
2017-Feb-11 23:33N 39°20' E 001°10'1312.6
2017-Feb-11 22:33N 39°10' E 000°60'1212.4
2017-Feb-11 21:33N 39°01' E 000°49'9812.2
2017-Feb-11 13:32N 37°41' W 000°24'1211.8
2017-Feb-11 12:33N 37°32' W 000°32'1211.8
2017-Feb-11 11:33N 37°24' W 000°44'1311.7
2017-Feb-11 10:28N 37°15' W 000°55'  

Dump ship's entire track history